Time;durP1;ratioP1;P1;durP2;ratioP2;P2;SDS_P1;SDS_P2;PMS_P1;PMS_P2;Temp;Humidity;BMP_temperature;BMP_pressure;BME280_temperature;BME280_humidity;BME280_pressure;Samples;Min_cycle;Max_cycle;Signal;HPM_P1;HPM_P2
2022/11/28 06:02:34;;;;;;;9.43;6.13;;;5.20;99.90;;;;;;5369316;23;20044;-76
2022/11/28 06:05:03;;;;;;;11.00;6.47;;;5.20;99.90;;;;;;4926626;29;20043;-76
2022/11/28 06:07:29;;;;;;;9.60;6.00;;;5.20;99.90;;;;;;4909767;29;20075;-75
2022/11/28 06:09:55;;;;;;;10.07;5.70;;;5.20;99.90;;;;;;4915612;29;20039;-75
2022/11/28 06:12:21;;;;;;;11.35;6.40;;;5.10;99.90;;;;;;4912153;29;20040;-78
2022/11/28 06:14:46;;;;;;;9.63;5.65;;;5.20;99.90;;;;;;4928670;29;20028;-76
2022/11/28 06:17:12;;;;;;;9.55;5.85;;;5.30;99.90;;;;;;4928509;29;20222;-75
2022/11/28 06:19:38;;;;;;;9.43;5.53;;;5.30;99.90;;;;;;4929231;29;20024;-78
2022/11/28 06:22:04;;;;;;;9.55;6.25;;;5.30;99.90;;;;;;4928809;29;20035;-76
2022/11/28 06:24:30;;;;;;;9.52;5.57;;;5.20;99.90;;;;;;4929252;29;20322;-76
2022/11/28 06:26:55;;;;;;;10.00;6.18;;;5.30;99.90;;;;;;4928939;29;20111;-76
2022/11/28 06:29:21;;;;;;;9.63;5.88;;;5.20;99.90;;;;;;4929041;29;20103;-77
2022/11/28 06:31:47;;;;;;;10.35;6.07;;;5.20;99.90;;;;;;4930187;29;20035;-77
2022/11/28 06:34:13;;;;;;;11.23;6.60;;;5.20;99.90;;;;;;4929622;29;20186;-77
2022/11/28 06:36:39;;;;;;;8.73;5.60;;;5.20;99.90;;;;;;4916153;29;20037;-76
2022/11/28 06:39:05;;;;;;;13.73;6.93;;;5.30;99.90;;;;;;4921505;29;20128;-74
2022/11/28 06:41:31;;;;;;;10.65;6.55;;;5.20;99.90;;;;;;4918743;29;20047;-76
2022/11/28 06:43:57;;;;;;;11.13;6.45;;;5.30;99.90;;;;;;4919056;29;20092;-74
2022/11/28 06:46:23;;;;;;;10.15;5.75;;;5.30;99.90;;;;;;4921616;29;20055;-72
2022/11/28 06:48:52;;;;;;;9.38;6.15;;;5.30;99.90;;;;;;4911419;29;20040;-75
2022/11/28 06:51:19;;;;;;;11.95;6.55;;;5.30;99.90;;;;;;4908704;29;20035;-76
2022/11/28 06:53:44;;;;;;;12.05;6.72;;;5.30;99.90;;;;;;4914896;29;20059;-73
2022/11/28 06:56:13;;;;;;;13.05;7.50;;;5.20;99.90;;;;;;4911949;29;20377;-76
2022/11/28 06:58:39;;;;;;;11.77;6.85;;;5.20;99.90;;;;;;4909528;29;20099;-74
2022/11/28 07:01:17;;;;;;;13.95;7.15;;;5.20;99.90;;;;;;4908537;29;20092;-79
2022/11/28 07:03:43;;;;;;;9.77;6.70;;;5.10;99.90;;;;;;4888594;29;20118;-75
2022/11/28 07:06:10;;;;;;;11.77;6.30;;;5.20;99.90;;;;;;4889928;29;20306;-78
2022/11/28 07:08:36;;;;;;;9.60;5.63;;;5.20;99.90;;;;;;4873340;29;20040;-77
2022/11/28 07:11:10;;;;;;;9.90;6.13;;;5.20;99.90;;;;;;4889695;29;20084;-78
2022/11/28 07:13:36;;;;;;;9.05;6.45;;;5.20;99.90;;;;;;4873538;29;20302;-75
2022/11/28 07:16:02;;;;;;;9.35;5.95;;;5.20;99.90;;;;;;4889742;29;20036;-76
2022/11/28 07:18:28;;;;;;;11.82;6.00;;;5.30;99.90;;;;;;4873295;29;20312;-78
2022/11/28 07:20:54;;;;;;;10.65;6.40;;;5.30;99.90;;;;;;4873453;29;20037;-74
2022/11/28 07:23:20;;;;;;;9.35;5.95;;;5.30;99.90;;;;;;4889409;29;20049;-76
2022/11/28 07:25:46;;;;;;;9.98;5.70;;;5.30;99.90;;;;;;4889610;29;20222;-77
2022/11/28 07:28:12;;;;;;;9.65;5.88;;;5.30;99.90;;;;;;4889606;29;20065;-77
2022/11/28 07:30:37;;;;;;;12.65;6.20;;;5.30;99.90;;;;;;4889747;29;20316;-76
2022/11/28 07:33:03;;;;;;;9.95;6.15;;;5.40;99.90;;;;;;4889230;29;20232;-76
2022/11/28 07:35:32;;;;;;;10.02;6.47;;;5.40;99.90;;;;;;4889807;29;20033;-75
2022/11/28 07:37:58;;;;;;;10.07;6.28;;;5.40;99.90;;;;;;4907650;29;20043;-76
2022/11/28 07:40:24;;;;;;;12.55;6.68;;;5.40;99.90;;;;;;4888845;29;20025;-75
2022/11/28 07:42:50;;;;;;;10.27;6.47;;;5.50;99.90;;;;;;4888358;29;20285;-76
2022/11/28 07:45:15;;;;;;;8.65;5.57;;;5.40;99.90;;;;;;4895880;29;20044;-75
2022/11/28 07:47:41;;;;;;;10.40;5.82;;;5.50;99.90;;;;;;4906858;29;20247;-77
2022/11/28 07:50:07;;;;;;;8.80;5.72;;;5.50;99.90;;;;;;4893029;29;20267;-76
2022/11/28 07:52:33;;;;;;;16.15;6.93;;;5.50;99.90;;;;;;4888030;29;20056;-76
2022/11/28 07:54:59;;;;;;;9.23;5.85;;;5.50;99.90;;;;;;4887584;29;20037;-74
2022/11/28 07:57:25;;;;;;;10.20;6.15;;;5.60;99.90;;;;;;4891495;29;20047;-73
2022/11/28 07:59:51;;;;;;;11.52;6.65;;;5.60;99.90;;;;;;4906663;29;20032;-74
2022/11/28 08:02:17;;;;;;;11.77;6.68;;;5.70;99.90;;;;;;4906128;29;20233;-76
2022/11/28 08:04:43;;;;;;;13.80;6.93;;;5.70;99.90;;;;;;4906732;29;20036;-73
2022/11/28 08:07:12;;;;;;;10.98;6.50;;;5.60;99.90;;;;;;4906020;29;20096;-75
2022/11/28 08:09:38;;;;;;;10.68;6.57;;;5.70;99.90;;;;;;4906200;29;20036;-73
2022/11/28 08:12:04;;;;;;;10.38;7.22;;;5.70;99.90;;;;;;4888994;29;20329;-76
2022/11/28 08:14:29;;;;;;;9.50;6.53;;;5.80;99.90;;;;;;4902838;29;20349;-74
2022/11/28 08:16:55;;;;;;;12.55;6.97;;;5.80;99.90;;;;;;4871332;29;20032;-74
2022/11/28 08:19:21;;;;;;;10.25;6.68;;;5.90;99.90;;;;;;4886894;29;20047;-74
2022/11/28 08:21:46;;;;;;;8.65;6.35;;;6.00;99.90;;;;;;4887737;29;20329;-74
2022/11/28 08:24:12;;;;;;;9.57;6.25;;;6.10;99.90;;;;;;4887318;29;20041;-75
2022/11/28 08:26:39;;;;;;;14.38;6.38;;;6.10;99.90;;;;;;4887529;29;20060;-74
2022/11/28 08:29:04;;;;;;;10.07;6.05;;;6.20;99.90;;;;;;4886980;29;20076;-74
2022/11/28 08:31:33;;;;;;;12.57;6.80;;;6.20;99.90;;;;;;4886944;29;20061;-74
2022/11/28 08:34:01;;;;;;;11.10;6.53;;;6.30;99.90;;;;;;4886971;29;20326;-75
2022/11/28 08:36:27;;;;;;;14.05;6.53;;;6.30;99.90;;;;;;4894558;29;20044;-74
2022/11/28 08:38:53;;;;;;;10.00;6.32;;;6.40;99.90;;;;;;4906053;29;20036;-74
2022/11/28 08:41:21;;;;;;;10.18;6.43;;;6.40;99.90;;;;;;4905187;29;20108;-75
2022/11/28 08:43:47;;;;;;;12.35;7.13;;;6.40;99.90;;;;;;4905862;29;20040;-74
2022/11/28 08:46:16;;;;;;;11.65;7.30;;;6.40;99.90;;;;;;4905306;29;20092;-75
2022/11/28 08:48:42;;;;;;;13.95;7.88;;;6.50;99.90;;;;;;4905606;29;20055;-74
2022/11/28 08:51:15;;;;;;;15.43;7.78;;;6.60;99.90;;;;;;4888441;29;20069;-74
2022/11/28 08:53:42;;;;;;;12.57;6.95;;;6.70;99.90;;;;;;4905800;29;20107;-74
2022/11/28 08:56:08;;;;;;;13.30;7.38;;;6.70;99.90;;;;;;4888568;29;20035;-75
2022/11/28 08:58:34;;;;;;;11.98;6.90;;;6.70;99.90;;;;;;4905532;29;20040;-75
2022/11/28 09:01:00;;;;;;;15.50;7.85;;;6.70;99.90;;;;;;4904471;29;20020;-74
2022/11/28 09:03:25;;;;;;;13.10;7.07;;;6.80;99.90;;;;;;4888644;29;20115;-75
2022/11/28 09:05:52;;;;;;;11.50;7.03;;;6.90;99.90;;;;;;4905201;29;20061;-74
2022/11/28 09:08:20;;;;;;;12.98;6.95;;;6.90;99.90;;;;;;4904454;29;20328;-74
2022/11/28 09:10:46;;;;;;;10.70;7.38;;;7.00;99.90;;;;;;4896776;29;20040;-73
2022/11/28 09:13:13;;;;;;;10.60;6.57;;;7.10;99.90;;;;;;4891763;29;20091;-74
2022/11/28 09:15:44;;;;;;;13.32;6.90;;;7.20;99.90;;;;;;4905569;29;20036;-74
2022/11/28 09:18:12;;;;;;;12.45;7.53;;;7.20;99.90;;;;;;4894073;29;20099;-74
2022/11/28 09:20:38;;;;;;;9.98;7.03;;;7.30;99.90;;;;;;4890149;29;20029;-74
2022/11/28 09:23:04;;;;;;;13.65;7.63;;;7.30;99.90;;;;;;4890024;29;20111;-74
2022/11/28 09:25:30;;;;;;;13.05;8.48;;;7.30;99.90;;;;;;4892183;29;20314;-73
2022/11/28 09:27:56;;;;;;;39.28;25.38;;;7.30;99.90;;;;;;4909365;29;20032;-75
2022/11/28 09:30:22;;;;;;;15.23;9.90;;;7.40;99.90;;;;;;4908445;29;20040;-74
2022/11/28 09:32:50;;;;;;;15.15;7.30;;;7.40;99.90;;;;;;4908849;29;20032;-74
2022/11/28 09:35:19;;;;;;;12.68;6.97;;;7.30;99.90;;;;;;4908790;29;20384;-75
2022/11/28 09:37:44;;;;;;;;;;;7.40;99.90;;;;;;4909726;29;20052;-75
2022/11/28 09:40:38;;;;;;;13.90;7.00;;;7.30;99.90;;;;;;4908907;29;19914;-76
2022/11/28 09:43:26;;;;;;;11.82;6.30;;;7.20;99.90;;;;;;4907810;29;20075;-74
2022/11/28 09:45:53;;;;;;;9.68;5.80;;;7.30;99.90;;;;;;4908993;29;20036;-73
2022/11/28 09:48:33;;;;;;;13.48;6.03;;;7.50;99.90;;;;;;4907438;29;20092;-75
2022/11/28 09:51:17;;;;;;;10.38;6.28;;;7.60;99.90;;;;;;4890192;29;20041;-75
2022/11/28 09:54:02;;;;;;;9.77;6.38;;;7.70;99.90;;;;;;4901684;29;20166;-71
2022/11/28 09:56:29;;;;;;;13.52;6.47;;;7.70;99.90;;;;;;4892397;29;20039;-77
2022/11/28 09:58:57;;;;;;;11.10;6.20;;;7.80;99.90;;;;;;4891398;29;20294;-75
2022/11/28 10:01:43;;;;;;;12.82;7.18;;;7.70;99.90;;;;;;4891492;29;20045;-77
2022/11/28 10:04:32;;;;;;;14.98;9.65;;;7.70;99.90;;;;;;4884966;29;20204;-77
2022/11/28 10:07:19;;;;;;;13.90;7.72;;;7.70;99.90;;;;;;4873314;29;20100;-74
2022/11/28 10:09:56;;;;;;;18.48;7.10;;;7.50;99.90;;;;;;4901764;29;20036;-73
2022/11/28 10:12:49;;;;;;;15.93;7.82;;;7.40;99.90;;;;;;4908558;29;20037;-74
2022/11/28 10:15:45;;;;;;;15.02;7.57;;;7.30;99.90;;;;;;4908375;29;20033;-75
2022/11/28 10:18:22;;;;;;;13.15;7.55;;;7.40;99.90;;;;;;4902502;29;20335;-74
2022/11/28 10:20:53;;;;;;;14.07;7.68;;;7.40;99.90;;;;;;4908420;29;20032;-73
2022/11/28 10:23:24;;;;;;;15.50;8.23;;;7.60;99.90;;;;;;4908299;29;20041;-74
2022/11/28 10:25:58;;;;;;;15.13;9.13;;;7.60;99.90;;;;;;4891930;29;20028;-74
2022/11/28 10:28:40;;;;;;;14.07;8.02;;;7.70;99.90;;;;;;4908208;29;20081;-73
2022/11/28 10:31:13;;;;;;;14.52;7.65;;;7.90;99.90;;;;;;4907300;29;20033;-75
2022/11/28 10:33:47;;;;;;;11.68;7.05;;;7.90;99.90;;;;;;4908117;29;20107;-74
2022/11/28 10:36:34;;;;;;;9.90;6.53;;;7.90;99.90;;;;;;4908186;29;20016;-73
2022/11/28 10:39:08;;;;;;;18.88;10.57;;;7.90;99.90;;;;;;4909195;29;20036;-74
2022/11/28 10:41:40;;;;;;;20.10;10.40;;;7.90;99.90;;;;;;4908555;29;20032;-76
2022/11/28 10:44:21;;;;;;;11.88;7.60;;;8.00;99.90;;;;;;4891504;29;20044;-75
2022/11/28 10:47:18;;;;;;;15.32;7.93;;;7.90;99.90;;;;;;4908597;29;20067;-75
2022/11/28 10:49:55;;;;;;;12.95;7.82;;;7.90;99.90;;;;;;4866250;29;20093;-74
2022/11/28 10:52:31;;;;;;;15.75;6.97;;;8.00;99.90;;;;;;4888872;29;20048;-72
2022/11/28 10:55:18;;;;;;;19.23;8.63;;;7.90;99.90;;;;;;4889727;29;20379;-73
2022/11/28 10:57:59;;;;;;;14.93;7.73;;;8.00;99.90;;;;;;4889491;29;20096;-75
2022/11/28 11:00:25;;;;;;;12.38;7.55;;;8.10;99.90;;;;;;4872475;29;20040;-74
2022/11/28 11:02:56;;;;;;;11.77;7.05;;;8.20;99.90;;;;;;4888667;29;20068;-74
2022/11/28 11:05:28;;;;;;;15.35;7.18;;;8.20;99.90;;;;;;4872112;29;20044;-75
2022/11/28 11:08:03;;;;;;;11.35;7.22;;;8.30;99.90;;;;;;4872229;29;20411;-75
2022/11/28 11:10:35;;;;;;;11.98;7.13;;;8.20;99.90;;;;;;4901436;29;20035;-75
2022/11/28 11:13:13;;;;;;;13.85;8.07;;;8.20;99.90;;;;;;4907935;29;20068;-74
2022/11/28 11:15:39;;;;;;;14.17;8.17;;;8.10;99.90;;;;;;4890855;29;20374;-74
2022/11/28 11:18:26;;;;;;;12.50;7.28;;;8.00;99.90;;;;;;4894811;29;20496;-75
2022/11/28 11:21:15;;;;;;;12.82;7.80;;;8.20;99.90;;;;;;4888628;29;20052;-73
2022/11/28 11:23:43;;;;;;;12.25;7.13;;;8.10;99.90;;;;;;4888609;29;20279;-74
2022/11/28 11:26:26;;;;;;;12.02;7.15;;;8.10;99.90;;;;;;4888443;29;20041;-74
2022/11/28 11:28:52;;;;;;;13.93;7.60;;;8.10;99.90;;;;;;4888350;29;20052;-75
2022/11/28 11:31:28;;;;;;;15.38;8.10;;;8.00;99.90;;;;;;4888027;29;20207;-73
2022/11/28 11:34:03;;;;;;;13.48;8.73;;;8.00;99.90;;;;;;4888184;29;20104;-74
2022/11/28 11:36:34;;;;;;;13.32;8.40;;;8.00;99.90;;;;;;4896105;29;20065;-76
2022/11/28 11:39:12;;;;;;;14.32;9.40;;;8.10;99.90;;;;;;4907276;29;20340;-76
2022/11/28 11:41:41;;;;;;;13.18;9.43;;;8.10;99.90;;;;;;4906907;29;20032;-74
2022/11/28 11:44:13;;;;;;;16.50;8.05;;;8.20;99.90;;;;;;4890447;29;20055;-74
2022/11/28 11:47:02;;;;;;;15.73;9.38;;;8.30;99.90;;;;;;4911394;29;20028;-74
2022/11/28 11:49:36;;;;;;;17.20;10.27;;;8.20;99.90;;;;;;4906796;29;20360;-74
2022/11/28 11:52:06;;;;;;;17.20;10.18;;;8.30;99.90;;;;;;4907328;29;20041;-75
2022/11/28 11:54:31;;;;;;;12.90;8.40;;;8.50;99.90;;;;;;4890903;29;20044;-75
2022/11/28 11:56:58;;;;;;;14.68;8.88;;;8.50;99.90;;;;;;4907959;29;20205;-74
2022/11/28 11:59:39;;;;;;;14.52;8.55;;;8.50;99.90;;;;;;4890001;29;20096;-74
2022/11/28 12:02:18;;;;;;;14.75;8.45;;;8.60;99.90;;;;;;4909024;29;20052;-75
2022/11/28 12:04:49;;;;;;;12.77;8.38;;;8.50;99.90;;;;;;4892182;29;20044;-74
2022/11/28 12:07:28;;;;;;;13.50;8.02;;;8.60;99.90;;;;;;4911295;29;20039;-74
2022/11/28 12:09:56;;;;;;;13.70;8.77;;;8.50;99.90;;;;;;4911719;29;20104;-75
2022/11/28 12:12:27;;;;;;;15.93;9.20;;;8.60;99.90;;;;;;4906716;29;20362;-74
2022/11/28 12:14:54;;;;;;;15.85;9.48;;;8.50;99.90;;;;;;4906735;29;20033;-75
2022/11/28 12:17:32;;;;;;;13.80;8.70;;;8.40;99.90;;;;;;4903957;29;20298;-77
2022/11/28 12:20:08;;;;;;;12.20;8.85;;;8.50;99.90;;;;;;4906507;29;20036;-76
2022/11/28 12:22:40;;;;;;;15.48;9.10;;;8.60;99.90;;;;;;4905676;29;20052;-76
2022/11/28 12:25:24;;;;;;;14.85;9.02;;;8.70;99.90;;;;;;4882844;29;20051;-75
2022/11/28 12:28:18;;;;;;;25.65;17.80;;;8.80;99.90;;;;;;4877017;29;20040;-76
2022/11/28 12:31:16;;;;;;;13.68;9.43;;;9.00;99.90;;;;;;4905735;29;20234;-75
2022/11/28 12:34:07;;;;;;;16.60;9.77;;;9.10;99.90;;;;;;4884221;29;20088;-76
2022/11/28 12:36:44;;;;;;;13.77;8.20;;;9.10;99.90;;;;;;4878436;29;20057;-75
2022/11/28 12:39:37;;;;;;;16.70;8.53;;;9.20;99.90;;;;;;4906053;29;20028;-77
2022/11/28 12:42:26;;;;;;;17.23;10.20;;;9.20;99.90;;;;;;4904329;29;20032;-76
2022/11/28 12:44:57;;;;;;;15.57;9.00;;;9.10;99.90;;;;;;4905740;29;20123;-75
2022/11/28 12:47:47;;;;;;;21.60;12.35;;;9.00;99.90;;;;;;4905186;29;20028;-76
2022/11/28 12:50:23;;;;;;;20.83;10.77;;;9.00;99.90;;;;;;4905549;29;20052;-74
2022/11/28 12:52:55;;;;;;;19.17;10.90;;;8.90;99.90;;;;;;4905776;29;20334;-75
2022/11/28 12:55:24;;;;;;;17.48;10.57;;;9.00;99.90;;;;;;4905163;29;20043;-73
2022/11/28 12:58:07;;;;;;;15.05;10.07;;;8.90;99.90;;;;;;4898448;29;20053;-74
2022/11/28 13:01:00;;;;;;;16.23;10.23;;;8.90;99.90;;;;;;4886531;29;20043;-76
2022/11/28 13:04:08;;;;;;;13.68;9.30;;;9.00;99.90;;;;;;4869756;29;20381;-74
2022/11/28 13:07:02;;;;;;;15.60;9.48;;;9.00;99.90;;;;;;4869864;29;20071;-74
2022/11/28 13:09:36;;;;;;;14.70;9.00;;;9.10;99.90;;;;;;4891874;29;20025;-73
2022/11/28 13:12:26;;;;;;;15.18;8.63;;;9.20;99.90;;;;;;4905808;29;20028;-77
2022/11/28 13:14:56;;;;;;;14.60;8.27;;;9.30;99.90;;;;;;4905367;29;20361;-74
2022/11/28 13:17:30;;;;;;;12.98;7.93;;;9.50;99.90;;;;;;4905115;29;20088;-75
2022/11/28 13:20:12;;;;;;;17.17;8.80;;;9.50;99.90;;;;;;4905765;29;20041;-74
2022/11/28 13:22:50;;;;;;;12.95;8.50;;;9.60;99.90;;;;;;4905366;29;20055;-75
2022/11/28 13:25:23;;;;;;;13.50;8.15;;;9.70;99.90;;;;;;4905136;29;20134;-75
2022/11/28 13:28:02;;;;;;;15.77;8.05;;;9.70;99.90;;;;;;4905694;29;20079;-76
2022/11/28 13:30:33;;;;;;;15.15;8.32;;;9.80;99.90;;;;;;4888668;29;20038;-75
2022/11/28 13:32:59;;;;;;;19.95;14.10;;;9.70;99.90;;;;;;4905960;29;20047;-75
2022/11/28 13:35:27;;;;;;;15.85;10.75;;;9.60;99.90;;;;;;4888701;29;20214;-76
2022/11/28 13:38:24;;;;;;;17.43;9.70;;;9.50;99.90;;;;;;4905493;29;20315;-74
2022/11/28 13:40:55;;;;;;;14.63;8.50;;;9.50;99.90;;;;;;4889068;29;20037;-75
2022/11/28 13:43:29;;;;;;;15.75;9.05;;;9.60;99.90;;;;;;4905293;29;20453;-74
2022/11/28 13:45:55;;;;;;;14.93;8.65;;;9.60;99.90;;;;;;4905290;29;20487;-75
2022/11/28 13:48:36;;;;;;;13.40;9.40;;;9.50;99.90;;;;;;4903620;29;20112;-79
2022/11/28 13:51:21;;;;;;;15.38;8.98;;;9.50;99.90;;;;;;4870310;29;20033;-77
2022/11/28 13:53:48;;;;;;;15.48;9.55;;;9.60;99.90;;;;;;4870731;29;20044;-75
2022/11/28 13:56:23;;;;;;;16.10;9.65;;;9.60;99.90;;;;;;4886377;29;20056;-74
2022/11/28 13:59:02;;;;;;;17.00;9.40;;;9.60;99.90;;;;;;4900580;29;20028;-75
2022/11/28 14:01:30;;;;;;;;;;;9.50;99.90;;;;;;4905327;29;20037;-76
2022/11/28 14:04:00;;;;;;;12.93;8.25;;;9.60;99.90;;;;;;4905051;29;20205;-74
2022/11/28 14:06:30;;;;;;;40.72;26.30;;;9.50;99.90;;;;;;4906479;29;20033;-74
2022/11/28 14:09:06;;;;;;;34.33;22.13;;;9.50;99.90;;;;;;4910235;29;20084;-75
2022/11/28 14:11:51;;;;;;;24.10;14.70;;;9.50;99.90;;;;;;4908901;29;20034;-74
2022/11/28 14:14:54;;;;;;;14.15;9.27;;;9.50;99.90;;;;;;4876582;29;20032;-76
2022/11/28 14:17:48;;;;;;;15.15;8.02;;;9.50;99.90;;;;;;4888895;29;20047;-74
2022/11/28 14:20:41;;;;;;;14.23;8.15;;;9.50;99.90;;;;;;4908630;29;20032;-74
2022/11/28 14:23:35;;;;;;;13.32;8.05;;;9.50;99.90;;;;;;4891775;29;20045;-75
2022/11/28 14:26:01;;;;;;;12.65;7.63;;;9.50;99.90;;;;;;4908880;29;20138;-77
2022/11/28 14:28:32;;;;;;;13.27;7.68;;;9.40;99.90;;;;;;4891426;29;20096;-74
2022/11/28 14:31:16;;;;;;;15.10;7.97;;;9.40;99.90;;;;;;4891575;29;20108;-75
2022/11/28 14:33:47;;;;;;;12.98;7.72;;;9.40;99.90;;;;;;4908369;29;20039;-74
2022/11/28 14:36:32;;;;;;;12.43;7.65;;;9.40;99.90;;;;;;4908336;29;20095;-76
2022/11/28 14:39:30;;;;;;;12.75;7.15;;;9.50;99.90;;;;;;4876063;29;20051;-74
2022/11/28 14:42:02;;;;;;;11.48;7.13;;;9.40;99.90;;;;;;4849281;29;20047;-75
2022/11/28 14:44:46;;;;;;;11.63;7.07;;;9.40;99.90;;;;;;4890504;29;20314;-74
2022/11/28 14:47:30;;;;;;;15.15;7.90;;;9.30;99.90;;;;;;4891017;29;20040;-73
2022/11/28 14:50:06;;;;;;;12.98;7.35;;;9.30;99.90;;;;;;4891207;29;20032;-72
2022/11/28 14:52:41;;;;;;;13.82;7.57;;;9.30;99.90;;;;;;4875557;29;20218;-71
2022/11/28 14:55:11;;;;;;;12.73;7.72;;;9.20;99.90;;;;;;4891488;29;20032;-75
2022/11/28 14:57:43;;;;;;;14.23;8.25;;;9.20;99.90;;;;;;4907246;29;20048;-73
2022/11/28 15:00:17;;;;;;;12.43;7.53;;;9.20;99.90;;;;;;4891127;29;20375;-75
2022/11/28 15:03:11;;;;;;;12.43;7.00;;;9.20;99.90;;;;;;4890324;29;20052;-75
2022/11/28 15:05:57;;;;;;;14.88;7.32;;;9.20;99.90;;;;;;4890701;29;20028;-75
2022/11/28 15:08:38;;;;;;;12.02;6.60;;;9.10;99.90;;;;;;4907093;29;20087;-74
2022/11/28 15:11:31;;;;;;;12.32;7.35;;;9.10;99.90;;;;;;4907537;29;20215;-73
2022/11/28 15:14:07;;;;;;;10.82;7.05;;;9.00;99.90;;;;;;4890802;29;20021;-74
2022/11/28 15:16:35;;;;;;;14.43;8.82;;;9.00;99.90;;;;;;4888846;29;20535;-77
2022/11/28 15:19:13;;;;;;;15.27;7.40;;;8.90;99.90;;;;;;4889027;29;20037;-73
2022/11/28 15:21:47;;;;;;;10.15;6.82;;;8.90;99.90;;;;;;4871684;29;20036;-73
2022/11/28 15:24:33;;;;;;;11.45;6.60;;;8.90;99.90;;;;;;4872204;29;20039;-72
2022/11/28 15:27:11;;;;;;;10.55;6.90;;;8.80;99.90;;;;;;4889007;29;20081;-72
2022/11/28 15:29:37;;;;;;;12.00;6.00;;;8.70;99.90;;;;;;4888499;29;20025;-71
2022/11/28 15:32:04;;;;;;;10.45;5.90;;;8.70;99.90;;;;;;4871872;29;20029;-72
2022/11/28 15:34:32;;;;;;;13.07;7.10;;;8.70;99.90;;;;;;4871743;29;20319;-71
2022/11/28 15:37:02;;;;;;;12.93;7.35;;;8.70;99.90;;;;;;4880405;29;20037;-73
2022/11/28 15:39:30;;;;;;;12.10;6.97;;;8.70;99.90;;;;;;4888263;29;20045;-72
2022/11/28 15:41:59;;;;;;;11.90;7.18;;;8.70;99.90;;;;;;4888674;29;20135;-72
2022/11/28 15:44:27;;;;;;;14.55;8.35;;;8.70;99.90;;;;;;4888136;29;20052;-71
2022/11/28 15:46:53;;;;;;;13.98;9.25;;;8.70;99.90;;;;;;4888227;29;20218;-72
2022/11/28 15:49:31;;;;;;;13.18;7.93;;;8.70;99.90;;;;;;4897301;29;20130;-73
2022/11/28 15:52:02;;;;;;;;;;;8.70;99.90;;;;;;4907784;29;20041;-72
2022/11/28 15:54:39;;;;;;;10.15;7.07;;;8.60;99.90;;;;;;4906257;29;20252;-71
2022/11/28 15:57:17;;;;;;;13.15;7.80;;;8.60;99.90;;;;;;4907295;29;20352;-72
2022/11/28 15:59:43;;;;;;;12.10;7.22;;;8.50;99.90;;;;;;4887796;29;20065;-72
2022/11/28 16:02:22;;;;;;;14.32;7.03;;;8.50;99.90;;;;;;4887775;29;20059;-72
2022/11/28 16:04:59;;;;;;;10.15;6.50;;;8.40;99.90;;;;;;4871319;29;20094;-72
2022/11/28 16:07:25;;;;;;;10.57;6.90;;;8.40;99.90;;;;;;4887403;29;20033;-73
2022/11/28 16:10:02;;;;;;;12.00;6.72;;;8.40;99.90;;;;;;4896164;29;20059;-73
2022/11/28 16:12:29;;;;;;;11.00;6.82;;;8.40;99.90;;;;;;4906435;29;20040;-73
2022/11/28 16:15:00;;;;;;;17.95;8.27;;;8.40;99.90;;;;;;4906512;29;20051;-72
2022/11/28 16:17:32;;;;;;;25.25;11.65;;;8.40;99.90;;;;;;4902678;29;20055;-72
2022/11/28 16:20:00;;;;;;;17.20;10.20;;;8.50;99.90;;;;;;4906621;29;20104;-72
2022/11/28 16:22:32;;;;;;;14.73;8.70;;;8.40;99.90;;;;;;4905833;29;20072;-72
2022/11/28 16:25:17;;;;;;;20.75;13.65;;;8.30;99.90;;;;;;4906532;29;20091;-72
2022/11/28 16:27:46;;;;;;;17.50;11.23;;;8.30;99.90;;;;;;4905977;29;20040;-71
2022/11/28 16:30:47;;;;;;;17.40;10.13;;;8.30;99.90;;;;;;4905984;29;20092;-71
2022/11/28 16:33:32;;;;;;;18.65;10.35;;;8.30;99.90;;;;;;4830298;29;20070;-71
2022/11/28 16:36:18;;;;;;;18.85;10.98;;;8.30;99.90;;;;;;4900402;29;20092;-74
2022/11/28 16:38:46;;;;;;;18.48;9.93;;;8.30;99.90;;;;;;4888444;29;20058;-71
2022/11/28 16:41:22;;;;;;;18.30;11.18;;;8.20;99.90;;;;;;4906177;29;20061;-73
2022/11/28 16:43:54;;;;;;;23.20;12.13;;;8.20;99.90;;;;;;4888906;29;20060;-71
2022/11/28 16:46:25;;;;;;;20.23;11.05;;;8.20;99.90;;;;;;4906025;29;20032;-71
2022/11/28 16:48:57;;;;;;;27.05;14.68;;;8.20;99.90;;;;;;4900552;29;20108;-71
2022/11/28 16:51:27;;;;;;;26.27;14.25;;;8.20;99.90;;;;;;4887191;29;20045;-72
2022/11/28 16:53:54;;;;;;;23.30;11.80;;;8.20;99.90;;;;;;4887117;29;20033;-72
2022/11/28 16:56:24;;;;;;;18.10;10.40;;;8.20;99.90;;;;;;4887455;29;20035;-72
2022/11/28 16:59:17;;;;;;;20.55;10.85;;;8.10;99.90;;;;;;4900930;29;20319;-72
2022/11/28 17:01:46;;;;;;;23.08;12.65;;;8.20;99.90;;;;;;4888627;29;20044;-76
2022/11/28 17:04:21;;;;;;;23.13;11.98;;;8.20;99.90;;;;;;4905921;29;20037;-72
2022/11/28 17:06:47;;;;;;;21.20;11.80;;;8.20;99.90;;;;;;4905576;29;20037;-72
2022/11/28 17:09:13;;;;;;;38.88;23.80;;;8.20;99.90;;;;;;4889363;29;20250;-71
2022/11/28 17:12:13;;;;;;;25.83;15.90;;;8.20;99.90;;;;;;4905863;29;20029;-73
2022/11/28 17:14:39;;;;;;;23.40;12.10;;;8.20;99.90;;;;;;4891856;29;20051;-71
2022/11/28 17:17:12;;;;;;;19.25;11.55;;;8.20;99.90;;;;;;4909144;29;20041;-71
2022/11/28 17:19:37;;;;;;;18.63;11.85;;;8.20;99.90;;;;;;4878565;29;20033;-71
2022/11/28 17:22:03;;;;;;;17.38;11.60;;;8.10;99.90;;;;;;4894826;29;20041;-73
2022/11/28 17:24:33;;;;;;;18.23;11.88;;;8.10;99.90;;;;;;4893519;29;20064;-71
2022/11/28 17:26:59;;;;;;;19.15;10.90;;;8.10;99.90;;;;;;4889177;29;20342;-72
2022/11/28 17:29:26;;;;;;;18.45;11.55;;;8.00;99.90;;;;;;4889244;29;20036;-72
2022/11/28 17:31:54;;;;;;;19.10;11.57;;;8.10;99.90;;;;;;4892853;29;20064;-71
2022/11/28 17:34:22;;;;;;;20.95;11.80;;;8.10;99.90;;;;;;4890814;29;20096;-72
2022/11/28 17:36:48;;;;;;;;;;;8.10;99.90;;;;;;4885976;29;20108;-70
2022/11/28 17:39:15;;;;;;;21.27;12.13;;;8.00;99.90;;;;;;4887100;29;19908;-73
2022/11/28 17:41:41;;;;;;;20.15;12.13;;;8.00;99.90;;;;;;4890389;29;20021;-71
2022/11/28 17:44:20;;;;;;;18.63;11.00;;;8.00;99.90;;;;;;4890796;29;20041;-74
2022/11/28 17:46:48;;;;;;;18.85;11.48;;;8.00;99.90;;;;;;4890644;29;20036;-74
2022/11/28 17:49:13;;;;;;;18.58;10.93;;;8.00;99.90;;;;;;4898952;29;20020;-73
2022/11/28 17:51:39;;;;;;;17.63;11.95;;;8.00;99.90;;;;;;4892232;29;20088;-72
2022/11/28 17:54:06;;;;;;;21.63;12.27;;;8.00;99.90;;;;;;4892449;29;20035;-74
2022/11/28 17:56:32;;;;;;;21.52;12.32;;;8.00;99.90;;;;;;4892285;29;20017;-74
2022/11/28 17:58:58;;;;;;;20.00;12.13;;;8.00;99.90;;;;;;4908981;29;20020;-75
2022/11/28 18:01:27;;;;;;;18.98;11.27;;;8.00;99.90;;;;;;4909197;29;20076;-74
2022/11/28 18:03:57;;;;;;;20.67;10.77;;;8.10;99.90;;;;;;4891944;29;20119;-73
2022/11/28 18:06:23;;;;;;;19.95;11.45;;;8.10;99.90;;;;;;4892113;29;20070;-75
2022/11/28 18:08:50;;;;;;;17.90;11.30;;;8.20;99.90;;;;;;4891702;29;20044;-73
2022/11/28 18:11:20;;;;;;;19.17;12.07;;;8.20;99.90;;;;;;4909019;29;20230;-73
2022/11/28 18:13:47;;;;;;;25.27;12.45;;;8.10;99.90;;;;;;4891604;29;20252;-73
2022/11/28 18:16:16;;;;;;;18.65;10.77;;;8.10;99.90;;;;;;4908954;29;20115;-75
2022/11/28 18:18:42;;;;;;;20.90;11.05;;;8.20;99.90;;;;;;4904207;29;20037;-75
2022/11/28 18:21:09;;;;;;;18.80;11.38;;;8.10;99.90;;;;;;4891791;29;20072;-74
2022/11/28 18:23:39;;;;;;;19.33;11.95;;;8.10;99.90;;;;;;4908200;29;20310;-73
2022/11/28 18:26:18;;;;;;;22.10;12.20;;;8.00;99.90;;;;;;4891816;29;20056;-71
2022/11/28 18:28:48;;;;;;;22.75;11.30;;;8.10;99.90;;;;;;4891615;29;20222;-75
2022/11/28 18:31:17;;;;;;;21.90;10.93;;;8.00;99.90;;;;;;4891956;29;20318;-74
2022/11/28 18:33:45;;;;;;;18.63;11.95;;;8.00;99.90;;;;;;4908318;29;20088;-70
2022/11/28 18:36:20;;;;;;;21.58;12.00;;;8.00;99.90;;;;;;4908968;29;20024;-73
2022/11/28 18:38:47;;;;;;;23.48;12.90;;;8.00;99.90;;;;;;4892130;29;20033;-74
2022/11/28 18:41:14;;;;;;;22.63;14.38;;;8.10;99.90;;;;;;4892250;29;20071;-74
2022/11/28 18:43:44;;;;;;;25.88;15.10;;;8.10;99.90;;;;;;4891143;29;20047;-71
2022/11/28 18:46:15;;;;;;;20.45;12.95;;;8.10;99.90;;;;;;4891297;29;20033;-70
2022/11/28 18:48:44;;;;;;;27.05;17.27;;;8.10;99.90;;;;;;4891298;29;20216;-74
2022/11/28 18:51:21;;;;;;;23.50;14.10;;;8.10;99.90;;;;;;4891459;29;20040;-72
2022/11/28 18:53:51;;;;;;;23.25;13.20;;;8.10;99.90;;;;;;4908116;29;20037;-71
2022/11/28 18:56:17;;;;;;;19.65;13.25;;;8.10;99.90;;;;;;4892143;29;20036;-73
2022/11/28 18:58:46;;;;;;;21.20;12.60;;;8.10;99.90;;;;;;4891849;29;20033;-71
2022/11/28 19:01:19;;;;;;;21.65;13.10;;;8.00;99.90;;;;;;4892283;29;20294;-71
2022/11/28 19:03:51;;;;;;;22.27;12.52;;;7.90;99.90;;;;;;4891309;29;20053;-71
2022/11/28 19:06:18;;;;;;;21.40;12.93;;;7.90;99.90;;;;;;4892091;29;20340;-74
2022/11/28 19:08:45;;;;;;;18.75;12.18;;;7.90;99.90;;;;;;4907636;29;20029;-71
2022/11/28 19:11:16;;;;;;;21.65;13.38;;;7.90;99.90;;;;;;4891281;29;20032;-71
2022/11/28 19:13:44;;;;;;;22.85;14.23;;;7.90;99.90;;;;;;4908179;29;20036;-72
2022/11/28 19:16:15;;;;;;;23.98;14.07;;;7.90;99.90;;;;;;4891185;29;20224;-71